sensor_id;sensor_type;location;lat;lon;timestamp;temperature;humidity
16032;DHT22;8120;48.308;8.914;2023-12-14T00:00:23;4.30;95.70
16032;DHT22;8120;48.308;8.914;2023-12-14T00:02:51;4.30;95.50
16032;DHT22;8120;48.308;8.914;2023-12-14T00:05:19;4.30;95.40
16032;DHT22;8120;48.308;8.914;2023-12-14T00:07:47;4.20;95.50
16032;DHT22;8120;48.308;8.914;2023-12-14T00:10:15;4.10;95.70
16032;DHT22;8120;48.308;8.914;2023-12-14T00:12:45;4.10;96.00
16032;DHT22;8120;48.308;8.914;2023-12-14T00:15:15;4.10;96.30
16032;DHT22;8120;48.308;8.914;2023-12-14T00:17:43;4.10;96.50
16032;DHT22;8120;48.308;8.914;2023-12-14T00:20:11;4.10;96.70
16032;DHT22;8120;48.308;8.914;2023-12-14T00:22:40;4.10;96.80
16032;DHT22;8120;48.308;8.914;2023-12-14T00:25:08;4.10;96.90
16032;DHT22;8120;48.308;8.914;2023-12-14T00:27:36;4.10;96.70
16032;DHT22;8120;48.308;8.914;2023-12-14T00:30:06;4.20;96.70
16032;DHT22;8120;48.308;8.914;2023-12-14T00:32:34;4.20;96.50
16032;DHT22;8120;48.308;8.914;2023-12-14T00:35:03;4.20;96.30
16032;DHT22;8120;48.308;8.914;2023-12-14T00:37:31;4.20;95.90
16032;DHT22;8120;48.308;8.914;2023-12-14T00:39:59;4.20;95.70
16032;DHT22;8120;48.308;8.914;2023-12-14T00:42:27;4.20;95.70
16032;DHT22;8120;48.308;8.914;2023-12-14T00:44:54;4.30;95.70
16032;DHT22;8120;48.308;8.914;2023-12-14T00:47:24;4.20;96.10
16032;DHT22;8120;48.308;8.914;2023-12-14T00:49:52;4.20;96.40
16032;DHT22;8120;48.308;8.914;2023-12-14T00:52:20;4.20;96.70
16032;DHT22;8120;48.308;8.914;2023-12-14T00:54:48;4.20;96.90
16032;DHT22;8120;48.308;8.914;2023-12-14T00:57:15;4.20;97.10
16032;DHT22;8120;48.308;8.914;2023-12-14T00:59:43;4.10;97.30
16032;DHT22;8120;48.308;8.914;2023-12-14T01:02:11;4.10;97.50
16032;DHT22;8120;48.308;8.914;2023-12-14T01:04:41;4.10;97.70
16032;DHT22;8120;48.308;8.914;2023-12-14T01:07:08;4.10;97.60
16032;DHT22;8120;48.308;8.914;2023-12-14T01:09:37;4.10;97.50
16032;DHT22;8120;48.308;8.914;2023-12-14T01:12:05;4.20;97.40
16032;DHT22;8120;48.308;8.914;2023-12-14T01:14:33;4.10;97.10
16032;DHT22;8120;48.308;8.914;2023-12-14T01:17:01;4.10;97.20
16032;DHT22;8120;48.308;8.914;2023-12-14T01:19:29;4.10;97.30
16032;DHT22;8120;48.308;8.914;2023-12-14T01:21:58;4.10;97.30
16032;DHT22;8120;48.308;8.914;2023-12-14T01:24:26;4.10;97.30
16032;DHT22;8120;48.308;8.914;2023-12-14T01:26:54;4.10;97.20
16032;DHT22;8120;48.308;8.914;2023-12-14T01:29:22;4.10;97.00
16032;DHT22;8120;48.308;8.914;2023-12-14T01:31:50;4.10;96.80
16032;DHT22;8120;48.308;8.914;2023-12-14T01:34:18;4.10;96.40
16032;DHT22;8120;48.308;8.914;2023-12-14T01:36:45;4.20;96.00
16032;DHT22;8120;48.308;8.914;2023-12-14T01:39:15;4.20;95.80
16032;DHT22;8120;48.308;8.914;2023-12-14T01:41:42;4.20;95.20
16032;DHT22;8120;48.308;8.914;2023-12-14T01:44:10;4.20;94.90
16032;DHT22;8120;48.308;8.914;2023-12-14T01:46:38;4.20;94.50
16032;DHT22;8120;48.308;8.914;2023-12-14T01:49:06;4.20;94.40
16032;DHT22;8120;48.308;8.914;2023-12-14T01:51:34;4.20;94.10
16032;DHT22;8120;48.308;8.914;2023-12-14T01:54:02;4.20;93.60
16032;DHT22;8120;48.308;8.914;2023-12-14T01:56:31;4.20;93.50
16032;DHT22;8120;48.308;8.914;2023-12-14T01:58:59;4.20;93.30
16032;DHT22;8120;48.308;8.914;2023-12-14T02:05:15;4.10;92.90
16032;DHT22;8120;48.308;8.914;2023-12-14T02:07:44;4.10;93.30
16032;DHT22;8120;48.308;8.914;2023-12-14T02:10:12;4.10;93.70
16032;DHT22;8120;48.308;8.914;2023-12-14T02:12:41;4.00;93.90
16032;DHT22;8120;48.308;8.914;2023-12-14T02:15:09;4.00;94.30
16032;DHT22;8120;48.308;8.914;2023-12-14T02:17:37;4.00;94.70
16032;DHT22;8120;48.308;8.914;2023-12-14T02:20:06;4.00;94.90
16032;DHT22;8120;48.308;8.914;2023-12-14T02:22:48;4.00;95.00
16032;DHT22;8120;48.308;8.914;2023-12-14T02:25:16;4.00;95.00
16032;DHT22;8120;48.308;8.914;2023-12-14T02:27:44;4.00;95.10
16032;DHT22;8120;48.308;8.914;2023-12-14T02:30:13;4.00;95.20
16032;DHT22;8120;48.308;8.914;2023-12-14T02:32:41;3.90;95.30
16032;DHT22;8120;48.308;8.914;2023-12-14T02:35:09;3.90;95.30
16032;DHT22;8120;48.308;8.914;2023-12-14T02:37:39;3.90;95.30
16032;DHT22;8120;48.308;8.914;2023-12-14T02:40:09;4.00;95.10
16032;DHT22;8120;48.308;8.914;2023-12-14T02:42:37;4.00;95.10
16032;DHT22;8120;48.308;8.914;2023-12-14T02:45:06;4.00;95.10
16032;DHT22;8120;48.308;8.914;2023-12-14T02:47:34;4.00;95.30
16032;DHT22;8120;48.308;8.914;2023-12-14T02:50:02;3.90;95.50
16032;DHT22;8120;48.308;8.914;2023-12-14T02:52:31;3.90;95.50
16032;DHT22;8120;48.308;8.914;2023-12-14T02:55:01;3.90;95.60
16032;DHT22;8120;48.308;8.914;2023-12-14T02:57:28;3.90;95.60
16032;DHT22;8120;48.308;8.914;2023-12-14T02:59:56;3.90;95.70
16032;DHT22;8120;48.308;8.914;2023-12-14T03:02:24;3.90;95.50
16032;DHT22;8120;48.308;8.914;2023-12-14T03:04:52;3.90;95.00
16032;DHT22;8120;48.308;8.914;2023-12-14T03:07:20;3.90;94.90
16032;DHT22;8120;48.308;8.914;2023-12-14T03:09:48;4.00;94.80
16032;DHT22;8120;48.308;8.914;2023-12-14T03:12:17;4.00;94.70
16032;DHT22;8120;48.308;8.914;2023-12-14T03:14:45;4.00;94.10
16032;DHT22;8120;48.308;8.914;2023-12-14T03:17:13;4.00;93.60
16032;DHT22;8120;48.308;8.914;2023-12-14T03:19:42;4.00;93.70
16032;DHT22;8120;48.308;8.914;2023-12-14T03:22:10;4.00;94.10
16032;DHT22;8120;48.308;8.914;2023-12-14T03:24:38;4.00;94.40
16032;DHT22;8120;48.308;8.914;2023-12-14T03:27:05;4.00;94.70
16032;DHT22;8120;48.308;8.914;2023-12-14T03:29:35;4.00;95.00
16032;DHT22;8120;48.308;8.914;2023-12-14T03:32:03;4.00;95.20
16032;DHT22;8120;48.308;8.914;2023-12-14T03:34:31;4.00;95.30
16032;DHT22;8120;48.308;8.914;2023-12-14T03:36:59;4.00;95.50
16032;DHT22;8120;48.308;8.914;2023-12-14T03:39:27;4.00;95.80
16032;DHT22;8120;48.308;8.914;2023-12-14T03:41:55;4.00;96.20
16032;DHT22;8120;48.308;8.914;2023-12-14T03:44:22;4.00;96.40
16032;DHT22;8120;48.308;8.914;2023-12-14T03:46:52;4.00;96.60
16032;DHT22;8120;48.308;8.914;2023-12-14T03:49:21;4.00;96.70
16032;DHT22;8120;48.308;8.914;2023-12-14T03:51:49;3.90;97.10
16032;DHT22;8120;48.308;8.914;2023-12-14T03:54:17;4.00;97.30
16032;DHT22;8120;48.308;8.914;2023-12-14T03:56:45;3.90;97.60
16032;DHT22;8120;48.308;8.914;2023-12-14T03:59:13;3.90;97.80
16032;DHT22;8120;48.308;8.914;2023-12-14T04:01:41;3.90;98.20
16032;DHT22;8120;48.308;8.914;2023-12-14T04:04:11;3.90;98.50
16032;DHT22;8120;48.308;8.914;2023-12-14T04:06:39;3.90;98.80
16032;DHT22;8120;48.308;8.914;2023-12-14T04:09:06;4.30;97.70
16032;DHT22;8120;48.308;8.914;2023-12-14T04:11:34;3.90;99.10
16032;DHT22;8120;48.308;8.914;2023-12-14T04:14:02;3.90;99.40
16032;DHT22;8120;48.308;8.914;2023-12-14T04:16:30;3.90;99.60
16032;DHT22;8120;48.308;8.914;2023-12-14T04:18:58;3.90;99.70
16032;DHT22;8120;48.308;8.914;2023-12-14T04:21:28;3.90;99.80
16032;DHT22;8120;48.308;8.914;2023-12-14T04:23:56;3.90;99.80
16032;DHT22;8120;48.308;8.914;2023-12-14T04:26:24;4.00;99.80
16032;DHT22;8120;48.308;8.914;2023-12-14T04:28:52;4.00;99.80
16032;DHT22;8120;48.308;8.914;2023-12-14T04:31:20;3.90;99.70
16032;DHT22;8120;48.308;8.914;2023-12-14T04:33:48;3.90;99.70
16032;DHT22;8120;48.308;8.914;2023-12-14T04:36:15;4.00;99.80
16032;DHT22;8120;48.308;8.914;2023-12-14T04:38:45;4.00;99.80
16032;DHT22;8120;48.308;8.914;2023-12-14T04:41:13;4.10;99.80
16032;DHT22;8120;48.308;8.914;2023-12-14T04:43:41;4.10;99.60
16032;DHT22;8120;48.308;8.914;2023-12-14T04:46:09;4.10;99.50
16032;DHT22;8120;48.308;8.914;2023-12-14T04:48:37;4.00;99.40
16032;DHT22;8120;48.308;8.914;2023-12-14T04:51:05;4.00;99.40
16032;DHT22;8120;48.308;8.914;2023-12-14T04:53:33;4.00;99.60
16032;DHT22;8120;48.308;8.914;2023-12-14T04:56:02;4.00;99.60
16032;DHT22;8120;48.308;8.914;2023-12-14T04:58:31;3.90;99.70
16032;DHT22;8120;48.308;8.914;2023-12-14T05:00:58;3.90;99.80
16032;DHT22;8120;48.308;8.914;2023-12-14T05:03:27;3.90;99.90
16032;DHT22;8120;48.308;8.914;2023-12-14T05:05:54;3.90;99.90
16032;DHT22;8120;48.308;8.914;2023-12-14T05:08:23;3.90;99.90
16032;DHT22;8120;48.308;8.914;2023-12-14T05:10:51;3.90;99.90
16032;DHT22;8120;48.308;8.914;2023-12-14T05:13:20;3.90;99.90
16032;DHT22;8120;48.308;8.914;2023-12-14T05:15:48;3.90;99.70
16032;DHT22;8120;48.308;8.914;2023-12-14T05:18:16;4.00;99.40
16032;DHT22;8120;48.308;8.914;2023-12-14T05:20:44;4.00;99.10
16032;DHT22;8120;48.308;8.914;2023-12-14T05:23:12;4.00;98.90
16032;DHT22;8120;48.308;8.914;2023-12-14T05:25:41;4.00;98.80
16032;DHT22;8120;48.308;8.914;2023-12-14T05:28:08;4.00;98.90
16032;DHT22;8120;48.308;8.914;2023-12-14T05:30:38;3.90;98.90
16032;DHT22;8120;48.308;8.914;2023-12-14T05:33:06;3.90;99.00
16032;DHT22;8120;48.308;8.914;2023-12-14T05:35:37;3.90;98.90
16032;DHT22;8120;48.308;8.914;2023-12-14T05:38:05;3.90;98.90
16032;DHT22;8120;48.308;8.914;2023-12-14T05:40:33;4.00;99.00
16032;DHT22;8120;48.308;8.914;2023-12-14T05:43:01;3.90;99.00
16032;DHT22;8120;48.308;8.914;2023-12-14T05:45:29;3.90;98.90
16032;DHT22;8120;48.308;8.914;2023-12-14T05:47:58;4.10;99.30
16032;DHT22;8120;48.308;8.914;2023-12-14T05:50:27;4.10;98.60
16032;DHT22;8120;48.308;8.914;2023-12-14T05:52:54;4.10;97.70
16032;DHT22;8120;48.308;8.914;2023-12-14T05:55:23;4.10;97.70
16032;DHT22;8120;48.308;8.914;2023-12-14T05:57:51;4.00;97.90
16032;DHT22;8120;48.308;8.914;2023-12-14T06:00:19;4.00;98.00
16032;DHT22;8120;48.308;8.914;2023-12-14T06:02:46;4.00;98.10
16032;DHT22;8120;48.308;8.914;2023-12-14T06:05:16;4.00;98.30
16032;DHT22;8120;48.308;8.914;2023-12-14T06:07:44;4.00;98.40
16032;DHT22;8120;48.308;8.914;2023-12-14T06:10:12;4.00;98.50
16032;DHT22;8120;48.308;8.914;2023-12-14T06:12:40;4.00;98.50
16032;DHT22;8120;48.308;8.914;2023-12-14T06:15:08;4.00;98.60
16032;DHT22;8120;48.308;8.914;2023-12-14T06:17:37;4.00;98.60
16032;DHT22;8120;48.308;8.914;2023-12-14T06:20:06;4.00;98.70
16032;DHT22;8120;48.308;8.914;2023-12-14T06:22:37;4.00;98.70
16032;DHT22;8120;48.308;8.914;2023-12-14T06:25:06;4.00;98.90
16032;DHT22;8120;48.308;8.914;2023-12-14T06:27:34;4.00;98.90
16032;DHT22;8120;48.308;8.914;2023-12-14T06:30:02;4.00;99.00
16032;DHT22;8120;48.308;8.914;2023-12-14T06:32:30;4.00;99.00
16032;DHT22;8120;48.308;8.914;2023-12-14T06:34:58;4.00;99.20
16032;DHT22;8120;48.308;8.914;2023-12-14T06:37:26;4.00;99.40
16032;DHT22;8120;48.308;8.914;2023-12-14T06:39:56;4.00;99.50
16032;DHT22;8120;48.308;8.914;2023-12-14T06:42:23;4.00;99.50
16032;DHT22;8120;48.308;8.914;2023-12-14T06:44:51;4.00;99.60
16032;DHT22;8120;48.308;8.914;2023-12-14T06:47:19;4.00;99.50
16032;DHT22;8120;48.308;8.914;2023-12-14T06:49:47;4.00;99.40
16032;DHT22;8120;48.308;8.914;2023-12-14T06:52:16;4.00;99.40
16032;DHT22;8120;48.308;8.914;2023-12-14T06:54:44;4.10;99.30
16032;DHT22;8120;48.308;8.914;2023-12-14T06:57:14;4.10;99.00
16032;DHT22;8120;48.308;8.914;2023-12-14T06:59:41;4.10;98.90
16032;DHT22;8120;48.308;8.914;2023-12-14T07:02:09;4.10;98.70
16032;DHT22;8120;48.308;8.914;2023-12-14T07:04:37;4.10;98.60
16032;DHT22;8120;48.308;8.914;2023-12-14T07:07:05;4.10;98.40
16032;DHT22;8120;48.308;8.914;2023-12-14T07:09:35;4.10;98.40
16032;DHT22;8120;48.308;8.914;2023-12-14T07:12:03;4.10;98.50
16032;DHT22;8120;48.308;8.914;2023-12-14T07:14:32;4.10;98.70
16032;DHT22;8120;48.308;8.914;2023-12-14T07:17:00;4.10;98.60
16032;DHT22;8120;48.308;8.914;2023-12-14T07:19:28;4.10;98.60
16032;DHT22;8120;48.308;8.914;2023-12-14T07:21:56;4.10;98.60
16032;DHT22;8120;48.308;8.914;2023-12-14T07:24:24;4.00;98.80
16032;DHT22;8120;48.308;8.914;2023-12-14T07:26:52;4.00;99.10
16032;DHT22;8120;48.308;8.914;2023-12-14T07:29:20;4.00;99.30
16032;DHT22;8120;48.308;8.914;2023-12-14T07:31:49;4.00;99.40
16032;DHT22;8120;48.308;8.914;2023-12-14T07:34:17;4.00;99.50
16032;DHT22;8120;48.308;8.914;2023-12-14T07:36:47;4.00;99.50
16032;DHT22;8120;48.308;8.914;2023-12-14T07:39:15;4.00;99.60
16032;DHT22;8120;48.308;8.914;2023-12-14T07:41:42;4.10;99.60
16032;DHT22;8120;48.308;8.914;2023-12-14T07:44:10;4.10;99.70
16032;DHT22;8120;48.308;8.914;2023-12-14T07:46:38;4.10;99.50
16032;DHT22;8120;48.308;8.914;2023-12-14T07:49:10;4.10;99.50
16032;DHT22;8120;48.308;8.914;2023-12-14T07:51:38;4.20;99.40
16032;DHT22;8120;48.308;8.914;2023-12-14T07:54:06;4.20;99.30
16032;DHT22;8120;48.308;8.914;2023-12-14T07:56:34;4.20;99.10
16032;DHT22;8120;48.308;8.914;2023-12-14T07:59:01;4.10;99.00
16032;DHT22;8120;48.308;8.914;2023-12-14T08:01:33;4.10;99.10
16032;DHT22;8120;48.308;8.914;2023-12-14T08:04:02;4.10;99.20
16032;DHT22;8120;48.308;8.914;2023-12-14T08:06:31;4.20;99.20
16032;DHT22;8120;48.308;8.914;2023-12-14T08:08:59;4.20;99.30
16032;DHT22;8120;48.308;8.914;2023-12-14T08:11:27;4.20;99.20
16032;DHT22;8120;48.308;8.914;2023-12-14T08:13:55;4.20;99.30
16032;DHT22;8120;48.308;8.914;2023-12-14T08:16:23;4.20;99.50
16032;DHT22;8120;48.308;8.914;2023-12-14T08:18:51;4.30;99.60
16032;DHT22;8120;48.308;8.914;2023-12-14T08:21:19;4.20;99.40
16032;DHT22;8120;48.308;8.914;2023-12-14T08:23:48;4.20;99.60
16032;DHT22;8120;48.308;8.914;2023-12-14T08:26:16;4.20;99.70
16032;DHT22;8120;48.308;8.914;2023-12-14T08:28:44;4.20;99.90
16032;DHT22;8120;48.308;8.914;2023-12-14T08:31:12;4.20;99.90
16032;DHT22;8120;48.308;8.914;2023-12-14T08:33:41;4.20;99.90
16032;DHT22;8120;48.308;8.914;2023-12-14T08:36:15;4.20;99.90
16032;DHT22;8120;48.308;8.914;2023-12-14T08:38:43;4.30;99.90
16032;DHT22;8120;48.308;8.914;2023-12-14T08:41:13;4.20;99.90
16032;DHT22;8120;48.308;8.914;2023-12-14T08:43:43;4.30;99.90
16032;DHT22;8120;48.308;8.914;2023-12-14T08:46:10;4.30;99.90
16032;DHT22;8120;48.308;8.914;2023-12-14T08:48:38;4.30;99.90
16032;DHT22;8120;48.308;8.914;2023-12-14T08:51:06;4.30;99.90
16032;DHT22;8120;48.308;8.914;2023-12-14T08:53:34;4.30;99.90
16032;DHT22;8120;48.308;8.914;2023-12-14T08:56:02;4.40;99.90
16032;DHT22;8120;48.308;8.914;2023-12-14T08:58:31;4.40;99.90
16032;DHT22;8120;48.308;8.914;2023-12-14T09:00:59;4.50;99.90
16032;DHT22;8120;48.308;8.914;2023-12-14T09:03:27;4.50;99.90
16032;DHT22;8120;48.308;8.914;2023-12-14T09:05:55;4.50;99.90
16032;DHT22;8120;48.308;8.914;2023-12-14T09:08:25;4.50;99.90
16032;DHT22;8120;48.308;8.914;2023-12-14T09:10:53;4.50;99.90
16032;DHT22;8120;48.308;8.914;2023-12-14T09:13:21;4.50;99.90
16032;DHT22;8120;48.308;8.914;2023-12-14T09:15:50;4.50;99.90
16032;DHT22;8120;48.308;8.914;2023-12-14T09:18:20;4.50;99.90
16032;DHT22;8120;48.308;8.914;2023-12-14T09:20:49;4.60;99.90
16032;DHT22;8120;48.308;8.914;2023-12-14T09:23:17;4.60;99.90
16032;DHT22;8120;48.308;8.914;2023-12-14T09:25:46;4.60;99.90
16032;DHT22;8120;48.308;8.914;2023-12-14T09:28:14;4.70;99.90
16032;DHT22;8120;48.308;8.914;2023-12-14T09:30:41;4.70;99.90
16032;DHT22;8120;48.308;8.914;2023-12-14T09:33:12;4.70;99.70
16032;DHT22;8120;48.308;8.914;2023-12-14T09:35:40;4.60;99.50
16032;DHT22;8120;48.308;8.914;2023-12-14T09:38:09;4.60;99.70
16032;DHT22;8120;48.308;8.914;2023-12-14T09:40:40;4.60;99.90
16032;DHT22;8120;48.308;8.914;2023-12-14T09:43:07;4.60;99.90
16032;DHT22;8120;48.308;8.914;2023-12-14T09:45:36;4.70;99.90
16032;DHT22;8120;48.308;8.914;2023-12-14T09:48:05;4.70;99.90
16032;DHT22;8120;48.308;8.914;2023-12-14T09:50:35;4.60;99.90
16032;DHT22;8120;48.308;8.914;2023-12-14T09:53:03;4.70;99.90
16032;DHT22;8120;48.308;8.914;2023-12-14T09:55:31;4.70;99.90
16032;DHT22;8120;48.308;8.914;2023-12-14T09:57:59;4.70;99.80
16032;DHT22;8120;48.308;8.914;2023-12-14T10:00:36;4.80;99.90
16032;DHT22;8120;48.308;8.914;2023-12-14T10:03:18;4.90;99.80
16032;DHT22;8120;48.308;8.914;2023-12-14T10:05:48;5.00;99.90
16032;DHT22;8120;48.308;8.914;2023-12-14T10:08:17;5.00;99.20
16032;DHT22;8120;48.308;8.914;2023-12-14T10:10:47;5.00;99.20
16032;DHT22;8120;48.308;8.914;2023-12-14T10:13:17;5.00;99.30
16032;DHT22;8120;48.308;8.914;2023-12-14T10:15:47;5.10;99.30
16032;DHT22;8120;48.308;8.914;2023-12-14T10:18:22;5.10;99.10
16032;DHT22;8120;48.308;8.914;2023-12-14T10:20:53;5.10;99.20
16032;DHT22;8120;48.308;8.914;2023-12-14T10:23:20;5.20;99.00
16032;DHT22;8120;48.308;8.914;2023-12-14T10:25:49;5.20;98.40
16032;DHT22;8120;48.308;8.914;2023-12-14T10:28:17;5.30;97.90
16032;DHT22;8120;48.308;8.914;2023-12-14T10:30:45;5.40;97.60
16032;DHT22;8120;48.308;8.914;2023-12-14T10:33:13;5.30;96.20
16032;DHT22;8120;48.308;8.914;2023-12-14T10:35:43;5.40;95.90
16032;DHT22;8120;48.308;8.914;2023-12-14T10:38:15;5.40;95.80
16032;DHT22;8120;48.308;8.914;2023-12-14T10:40:45;5.40;95.90
16032;DHT22;8120;48.308;8.914;2023-12-14T10:43:15;5.50;95.50
16032;DHT22;8120;48.308;8.914;2023-12-14T10:46:05;5.50;93.50
16032;DHT22;8120;48.308;8.914;2023-12-14T10:48:35;5.40;92.10
16032;DHT22;8120;48.308;8.914;2023-12-14T10:51:04;5.40;92.10
16032;DHT22;8120;48.308;8.914;2023-12-14T10:53:34;5.30;91.80
16032;DHT22;8120;48.308;8.914;2023-12-14T10:56:05;5.30;91.70
16032;DHT22;8120;48.308;8.914;2023-12-14T10:58:46;5.20;92.70
16032;DHT22;8120;48.308;8.914;2023-12-14T11:01:15;5.30;93.80
16032;DHT22;8120;48.308;8.914;2023-12-14T11:03:44;5.40;92.80
16032;DHT22;8120;48.308;8.914;2023-12-14T11:06:26;5.60;92.70
16032;DHT22;8120;48.308;8.914;2023-12-14T11:08:59;5.70;91.50
16032;DHT22;8120;48.308;8.914;2023-12-14T11:11:40;5.70;90.90
16032;DHT22;8120;48.308;8.914;2023-12-14T11:14:10;5.60;91.70
16032;DHT22;8120;48.308;8.914;2023-12-14T11:16:39;5.60;92.10
16032;DHT22;8120;48.308;8.914;2023-12-14T11:19:28;5.80;92.50
16032;DHT22;8120;48.308;8.914;2023-12-14T11:22:10;5.80;91.70
16032;DHT22;8120;48.308;8.914;2023-12-14T11:24:46;5.80;91.90
16032;DHT22;8120;48.308;8.914;2023-12-14T11:27:22;5.80;91.70
16032;DHT22;8120;48.308;8.914;2023-12-14T11:29:53;5.80;91.90
16032;DHT22;8120;48.308;8.914;2023-12-14T11:32:20;5.90;91.70
16032;DHT22;8120;48.308;8.914;2023-12-14T11:34:47;6.00;90.60
16032;DHT22;8120;48.308;8.914;2023-12-14T11:37:15;5.90;90.50
16032;DHT22;8120;48.308;8.914;2023-12-14T11:39:45;6.00;91.10
16032;DHT22;8120;48.308;8.914;2023-12-14T11:42:13;6.00;91.60
16032;DHT22;8120;48.308;8.914;2023-12-14T11:44:44;6.00;92.50
16032;DHT22;8120;48.308;8.914;2023-12-14T11:47:12;5.90;92.70
16032;DHT22;8120;48.308;8.914;2023-12-14T11:49:40;5.80;91.70
16032;DHT22;8120;48.308;8.914;2023-12-14T11:52:08;5.90;91.90
16032;DHT22;8120;48.308;8.914;2023-12-14T11:54:37;5.80;92.60
16032;DHT22;8120;48.308;8.914;2023-12-14T11:57:06;5.80;92.40
16032;DHT22;8120;48.308;8.914;2023-12-14T11:59:37;5.90;92.80
16032;DHT22;8120;48.308;8.914;2023-12-14T12:02:05;6.00;93.60
16032;DHT22;8120;48.308;8.914;2023-12-14T12:04:32;6.00;92.90
16032;DHT22;8120;48.308;8.914;2023-12-14T12:07:02;6.00;93.40
16032;DHT22;8120;48.308;8.914;2023-12-14T12:09:36;6.00;93.30
16032;DHT22;8120;48.308;8.914;2023-12-14T12:12:11;5.90;93.20
16032;DHT22;8120;48.308;8.914;2023-12-14T12:14:40;5.90;93.20
16032;DHT22;8120;48.308;8.914;2023-12-14T12:17:09;5.80;92.80
16032;DHT22;8120;48.308;8.914;2023-12-14T12:19:37;5.80;93.70
16032;DHT22;8120;48.308;8.914;2023-12-14T12:22:05;5.70;92.90
16032;DHT22;8120;48.308;8.914;2023-12-14T12:24:33;5.70;92.60
16032;DHT22;8120;48.308;8.914;2023-12-14T12:27:02;5.70;90.90
16032;DHT22;8120;48.308;8.914;2023-12-14T12:29:32;5.80;91.60
16032;DHT22;8120;48.308;8.914;2023-12-14T12:31:59;5.80;91.70
16032;DHT22;8120;48.308;8.914;2023-12-14T12:34:27;5.70;90.50
16032;DHT22;8120;48.308;8.914;2023-12-14T12:36:55;5.90;91.10
16032;DHT22;8120;48.308;8.914;2023-12-14T12:39:24;6.00;90.50
16032;DHT22;8120;48.308;8.914;2023-12-14T12:41:52;6.10;90.70
16032;DHT22;8120;48.308;8.914;2023-12-14T12:44:20;6.10;90.00
16032;DHT22;8120;48.308;8.914;2023-12-14T12:46:49;6.20;90.10
16032;DHT22;8120;48.308;8.914;2023-12-14T12:49:34;6.30;90.90
16032;DHT22;8120;48.308;8.914;2023-12-14T12:52:02;6.20;90.90
16032;DHT22;8120;48.308;8.914;2023-12-14T12:54:31;5.90;90.40
16032;DHT22;8120;48.308;8.914;2023-12-14T12:56:59;5.80;91.40
16032;DHT22;8120;48.308;8.914;2023-12-14T12:59:27;5.90;92.30
16032;DHT22;8120;48.308;8.914;2023-12-14T13:01:56;5.90;92.50
16032;DHT22;8120;48.308;8.914;2023-12-14T13:04:24;6.00;92.30
16032;DHT22;8120;48.308;8.914;2023-12-14T13:06:52;6.00;91.00
16032;DHT22;8120;48.308;8.914;2023-12-14T13:09:20;6.10;91.20
16032;DHT22;8120;48.308;8.914;2023-12-14T13:11:49;6.20;90.30
16032;DHT22;8120;48.308;8.914;2023-12-14T13:14:17;6.10;89.40
16032;DHT22;8120;48.308;8.914;2023-12-14T13:16:45;6.10;89.50
16032;DHT22;8120;48.308;8.914;2023-12-14T13:19:15;6.10;89.70
16032;DHT22;8120;48.308;8.914;2023-12-14T13:21:43;6.10;89.80
16032;DHT22;8120;48.308;8.914;2023-12-14T13:24:11;6.20;89.40
16032;DHT22;8120;48.308;8.914;2023-12-14T13:26:39;6.20;89.70
16032;DHT22;8120;48.308;8.914;2023-12-14T13:29:07;6.20;89.00
16032;DHT22;8120;48.308;8.914;2023-12-14T13:31:35;6.20;89.30
16032;DHT22;8120;48.308;8.914;2023-12-14T13:34:05;6.10;88.70
16032;DHT22;8120;48.308;8.914;2023-12-14T13:36:34;6.00;90.00
16032;DHT22;8120;48.308;8.914;2023-12-14T13:39:02;5.90;90.90
16032;DHT22;8120;48.308;8.914;2023-12-14T13:41:30;5.80;90.90
16032;DHT22;8120;48.308;8.914;2023-12-14T13:44:15;5.90;91.10
16032;DHT22;8120;48.308;8.914;2023-12-14T13:46:44;5.90;90.80
16032;DHT22;8120;48.308;8.914;2023-12-14T13:49:11;6.00;90.90
16032;DHT22;8120;48.308;8.914;2023-12-14T13:51:41;5.90;91.40
16032;DHT22;8120;48.308;8.914;2023-12-14T13:54:09;5.90;91.20
16032;DHT22;8120;48.308;8.914;2023-12-14T13:56:36;5.90;91.90
16032;DHT22;8120;48.308;8.914;2023-12-14T13:59:04;5.90;91.70
16032;DHT22;8120;48.308;8.914;2023-12-14T14:01:32;5.80;91.40
16032;DHT22;8120;48.308;8.914;2023-12-14T14:04:00;5.80;92.20
16032;DHT22;8120;48.308;8.914;2023-12-14T14:06:28;5.70;92.00
16032;DHT22;8120;48.308;8.914;2023-12-14T14:08:57;5.60;92.60
16032;DHT22;8120;48.308;8.914;2023-12-14T14:11:25;5.70;92.20
16032;DHT22;8120;48.308;8.914;2023-12-14T14:13:53;5.70;92.00
16032;DHT22;8120;48.308;8.914;2023-12-14T14:16:21;5.80;91.80
16032;DHT22;8120;48.308;8.914;2023-12-14T14:18:51;5.80;90.80
16032;DHT22;8120;48.308;8.914;2023-12-14T14:21:19;5.70;90.70
16032;DHT22;8120;48.308;8.914;2023-12-14T14:23:47;5.60;91.70
16032;DHT22;8120;48.308;8.914;2023-12-14T14:26:16;5.60;92.40
16032;DHT22;8120;48.308;8.914;2023-12-14T14:28:44;5.60;91.60
16032;DHT22;8120;48.308;8.914;2023-12-14T14:31:12;5.60;91.00
16032;DHT22;8120;48.308;8.914;2023-12-14T14:33:40;5.60;90.90
16032;DHT22;8120;48.308;8.914;2023-12-14T14:36:08;5.50;91.40
16032;DHT22;8120;48.308;8.914;2023-12-14T14:38:37;5.50;91.60
16032;DHT22;8120;48.308;8.914;2023-12-14T14:41:05;5.50;91.60
16032;DHT22;8120;48.308;8.914;2023-12-14T14:43:34;5.50;91.80
16032;DHT22;8120;48.308;8.914;2023-12-14T14:46:02;5.50;91.70
16032;DHT22;8120;48.308;8.914;2023-12-14T14:48:30;5.40;92.20
16032;DHT22;8120;48.308;8.914;2023-12-14T14:50:58;5.30;91.90
16032;DHT22;8120;48.308;8.914;2023-12-14T14:53:26;5.30;92.10
16032;DHT22;8120;48.308;8.914;2023-12-14T14:55:56;5.30;91.80
16032;DHT22;8120;48.308;8.914;2023-12-14T14:58:24;5.40;91.80
16032;DHT22;8120;48.308;8.914;2023-12-14T15:00:53;5.30;92.00
16032;DHT22;8120;48.308;8.914;2023-12-14T15:03:21;5.30;92.20
16032;DHT22;8120;48.308;8.914;2023-12-14T15:05:49;5.30;92.30
16032;DHT22;8120;48.308;8.914;2023-12-14T15:08:17;5.30;92.70
16032;DHT22;8120;48.308;8.914;2023-12-14T15:10:45;5.20;92.90
16032;DHT22;8120;48.308;8.914;2023-12-14T15:13:13;5.20;93.30
16032;DHT22;8120;48.308;8.914;2023-12-14T15:15:41;5.20;93.60
16032;DHT22;8120;48.308;8.914;2023-12-14T15:18:10;5.10;93.50
16032;DHT22;8120;48.308;8.914;2023-12-14T15:20:38;5.20;93.60
16032;DHT22;8120;48.308;8.914;2023-12-14T15:23:07;5.10;93.20
16032;DHT22;8120;48.308;8.914;2023-12-14T15:25:35;5.10;93.20
16032;DHT22;8120;48.308;8.914;2023-12-14T15:28:03;5.00;93.40
16032;DHT22;8120;48.308;8.914;2023-12-14T15:30:31;5.00;93.60
16032;DHT22;8120;48.308;8.914;2023-12-14T15:32:58;5.00;94.00
16032;DHT22;8120;48.308;8.914;2023-12-14T15:35:28;5.00;94.00
16032;DHT22;8120;48.308;8.914;2023-12-14T15:37:56;5.00;94.40
16032;DHT22;8120;48.308;8.914;2023-12-14T15:40:24;4.90;94.70
16032;DHT22;8120;48.308;8.914;2023-12-14T15:42:52;4.90;95.00
16032;DHT22;8120;48.308;8.914;2023-12-14T15:45:22;4.90;94.80
16032;DHT22;8120;48.308;8.914;2023-12-14T15:47:50;4.90;95.10
16032;DHT22;8120;48.308;8.914;2023-12-14T15:50:18;4.80;95.10
16032;DHT22;8120;48.308;8.914;2023-12-14T15:52:47;4.80;95.20
16032;DHT22;8120;48.308;8.914;2023-12-14T15:55:15;4.80;95.50
16032;DHT22;8120;48.308;8.914;2023-12-14T15:57:43;4.80;95.80
16032;DHT22;8120;48.308;8.914;2023-12-14T16:00:12;4.80;96.00
16032;DHT22;8120;48.308;8.914;2023-12-14T16:02:41;4.70;95.90
16032;DHT22;8120;48.308;8.914;2023-12-14T16:05:10;4.70;96.00
16032;DHT22;8120;48.308;8.914;2023-12-14T16:07:38;4.70;95.90
16032;DHT22;8120;48.308;8.914;2023-12-14T16:10:08;4.80;95.90
16032;DHT22;8120;48.308;8.914;2023-12-14T16:12:36;4.70;95.80
16032;DHT22;8120;48.308;8.914;2023-12-14T16:15:06;4.70;95.90